Jujuy, Argentina
Current Conditions -  °F | °C
As of 3:00 AM on Monday 22 Dec 2014 (Local Time) from SASJ Reporting Station
Drizzle Drizzle  
Wind Chill: 59°   Ceiling: 4000
Heat Index: 59°   Visibility: 3mi
Dew Point: 55°   Wind: 12mph
Humidity: 88%   Direction: 230°SW
Pressure: 30.06"   Gusts: NA
Location:  24.18°S, 65.3°W
Report Text: SASJ 220600Z 23010KT 180V260 5000 -DZ BRSCT010 OVC040 15/13 Q1018
Loading
Personal Weather Stations






























Interactive Weather Map New forecast layout! Learn more

10-Day Weather Forecast

Advertisements
Track Severe Weather on mobile